createdAt,value
2023-04-11T00:01:40.927Z,100605.00
2023-04-11T00:04:11.228Z,100599.00
2023-04-11T00:06:41.335Z,100596.00
2023-04-11T00:09:11.550Z,100597.00
2023-04-11T00:11:41.531Z,100578.00
2023-04-11T00:14:15.414Z,100573.00
2023-04-11T00:16:45.430Z,100580.00
2023-04-11T00:19:15.479Z,100568.00
2023-04-11T00:21:45.493Z,100569.00
2023-04-11T00:24:15.625Z,100557.00
2023-04-11T00:26:45.621Z,100551.00
2023-04-11T00:29:18.154Z,100544.00
2023-04-11T00:31:48.161Z,100549.00
2023-04-11T00:34:18.526Z,100549.00
2023-04-11T00:36:48.610Z,100538.00
2023-04-11T00:39:20.489Z,100543.00
2023-04-11T00:41:50.657Z,100541.00
2023-04-11T00:44:25.637Z,100535.00
2023-04-11T00:46:55.773Z,100526.00
2023-04-11T00:49:25.917Z,100510.00
2023-04-11T00:51:56.041Z,100504.00
2023-04-11T00:54:30.029Z,100496.00
2023-04-11T00:57:02.229Z,100497.00
2023-04-11T00:59:35.811Z,100493.00
2023-04-11T01:02:06.195Z,100489.00
2023-04-11T01:04:36.224Z,100487.00
2023-04-11T01:07:08.902Z,100485.00
2023-04-11T01:09:41.048Z,100493.00
2023-04-11T01:12:11.750Z,100490.00
2023-04-11T01:14:47.894Z,100484.00
2023-04-11T01:17:21.985Z,100474.00
2023-04-11T01:19:52.198Z,100480.00
2023-04-11T01:22:24.472Z,100479.00
2023-04-11T01:24:57.065Z,100472.00
2023-04-11T01:27:27.100Z,100467.00
2023-04-11T01:29:57.049Z,100464.00
2023-04-11T01:32:27.052Z,100444.00
2023-04-11T01:35:00.239Z,100440.00
2023-04-11T01:37:30.476Z,100432.00
2023-04-11T01:40:03.495Z,100432.00
2023-04-11T01:42:34.744Z,100413.00
2023-04-11T01:45:06.371Z,100394.00
2023-04-11T01:47:36.412Z,100387.00
2023-04-11T01:50:07.131Z,100391.00
2023-04-11T01:52:37.117Z,100382.00
2023-04-11T01:55:11.071Z,100384.00
2023-04-11T01:57:41.063Z,100375.00
2023-04-11T02:00:14.107Z,100377.00
2023-04-11T02:02:44.600Z,100368.00
2023-04-11T02:05:15.610Z,100366.00
2023-04-11T02:07:45.592Z,100357.00
2023-04-11T02:10:18.148Z,100351.00
2023-04-11T02:12:48.155Z,100335.00
2023-04-11T02:15:18.298Z,100341.00
2023-04-11T02:17:48.323Z,100335.00
2023-04-11T02:20:18.423Z,100334.00
2023-04-11T02:22:48.405Z,100319.00
2023-04-11T02:25:21.189Z,100317.00
2023-04-11T02:27:51.155Z,100318.00
2023-04-11T02:30:21.164Z,100313.00
2023-04-11T02:32:51.969Z,100307.00
2023-04-11T02:35:22.501Z,100299.00
2023-04-11T02:37:52.448Z,100292.00
2023-04-11T02:40:25.163Z,100296.00
2023-04-11T02:42:55.126Z,100295.00
2023-04-11T02:45:25.406Z,100284.00
2023-04-11T02:47:55.445Z,100282.00
2023-04-11T02:50:26.248Z,100276.00
2023-04-11T02:52:56.332Z,100277.00
2023-04-11T02:55:29.003Z,100271.00
2023-04-11T02:57:58.988Z,100283.00
2023-04-11T03:00:29.456Z,100275.00
2023-04-11T03:02:59.651Z,100273.00
2023-04-11T03:05:29.641Z,100264.00
2023-04-11T03:08:00.504Z,100267.00
2023-04-11T03:10:33.061Z,100267.00
2023-04-11T03:13:03.004Z,100273.00
2023-04-11T03:15:34.219Z,100257.00
2023-04-11T03:18:04.244Z,100260.00
2023-04-11T03:20:34.269Z,100255.00
2023-04-11T03:23:04.202Z,100255.00
2023-04-11T03:25:37.765Z,100247.00
2023-04-11T03:28:08.310Z,100249.00
2023-04-11T03:30:40.406Z,100248.00
2023-04-11T03:33:10.499Z,100255.00
2023-04-11T03:35:40.559Z,100244.00
2023-04-11T03:38:10.578Z,100248.00
2023-04-11T03:40:43.352Z,100241.00
2023-04-11T03:43:13.598Z,100235.00
2023-04-11T03:45:43.607Z,100228.00
2023-04-11T03:48:13.620Z,100234.00
2023-04-11T03:50:43.647Z,100240.00
2023-04-11T03:53:13.625Z,100226.00
2023-04-11T03:55:46.186Z,100226.00
2023-04-11T03:58:16.200Z,100217.00
2023-04-11T04:00:46.521Z,100221.00
2023-04-11T04:03:17.014Z,100215.00
2023-04-11T04:05:47.093Z,100215.00
2023-04-11T04:08:17.167Z,100223.00
2023-04-11T04:10:49.818Z,100202.00
2023-04-11T04:13:19.900Z,100199.00
2023-04-11T04:15:49.865Z,100203.00
2023-04-11T04:18:19.956Z,100205.00
2023-04-11T04:20:50.187Z,100205.00
2023-04-11T04:23:20.492Z,100213.00
2023-04-11T04:25:54.205Z,100212.00
2023-04-11T04:28:26.203Z,100203.00
2023-04-11T04:30:58.245Z,100203.00
2023-04-11T04:33:28.382Z,100209.00
2023-04-11T04:36:00.178Z,100212.00
2023-04-11T04:38:31.274Z,100212.00
2023-04-11T04:41:06.228Z,100206.00
2023-04-11T04:43:36.173Z,100203.00
2023-04-11T04:46:06.291Z,100193.00
2023-04-11T04:48:36.295Z,100190.00
2023-04-11T04:51:07.816Z,100192.00
2023-04-11T04:53:39.094Z,100193.00
2023-04-11T04:56:12.471Z,100190.00
2023-04-11T04:58:42.428Z,100212.00
2023-04-11T05:01:12.418Z,100207.00
2023-04-11T05:03:42.440Z,100199.00
2023-04-11T05:06:13.264Z,100203.00
2023-04-11T05:08:43.230Z,100187.00
2023-04-11T05:11:15.796Z,100202.00
2023-04-11T05:13:45.753Z,100191.00
2023-04-11T05:16:15.962Z,100188.00
2023-04-11T05:18:46.040Z,100199.00
2023-04-11T05:21:16.867Z,100196.00
2023-04-11T05:23:47.072Z,100201.00
2023-04-11T05:26:19.765Z,100197.00
2023-04-11T05:28:49.789Z,100184.00
2023-04-11T05:31:19.943Z,100170.00
2023-04-11T05:33:50.176Z,100168.00
2023-04-11T05:36:20.357Z,100184.00
2023-04-11T05:38:51.884Z,100185.00
2023-04-11T05:41:24.882Z,100190.00
2023-04-11T05:43:54.945Z,100188.00
2023-04-11T05:46:25.200Z,100176.00
2023-04-11T05:48:55.179Z,100170.00
2023-04-11T05:51:25.133Z,100172.00
2023-04-11T05:53:55.270Z,100171.00
2023-04-11T05:56:28.271Z,100172.00
2023-04-11T05:58:58.227Z,100182.00
2023-04-11T06:01:28.247Z,100181.00
2023-04-11T06:03:58.521Z,100174.00
2023-04-11T06:06:28.876Z,100176.00
2023-04-11T06:08:58.866Z,100167.00
2023-04-11T06:11:31.496Z,100167.00
2023-04-11T06:14:01.838Z,100176.00
2023-04-11T06:16:32.765Z,100184.00
2023-04-11T06:19:03.437Z,100182.00
2023-04-11T06:21:33.570Z,100187.00
2023-04-11T06:24:11.848Z,100174.00
2023-04-11T06:26:44.419Z,100182.00
2023-04-11T06:29:14.400Z,100187.00
2023-04-11T06:31:44.497Z,100178.00
2023-04-11T06:34:14.577Z,100179.00
2023-04-11T06:36:44.514Z,100173.00
2023-04-11T06:39:14.491Z,100173.00
2023-04-11T06:41:47.060Z,100173.00
2023-04-11T06:44:17.536Z,100164.00
2023-04-11T06:46:47.559Z,100172.00
2023-04-11T06:49:18.917Z,100180.00
2023-04-11T06:51:50.205Z,100168.00
2023-04-11T06:54:21.469Z,100164.00
2023-04-11T06:56:54.782Z,100169.00
2023-04-11T06:59:24.908Z,100171.00
2023-04-11T07:01:55.018Z,100172.00
2023-04-11T07:04:27.818Z,100172.00
2023-04-11T07:06:57.834Z,100168.00
2023-04-11T07:09:27.810Z,100172.00
2023-04-11T07:12:01.394Z,100167.00
2023-04-11T07:14:31.415Z,100172.00
2023-04-11T07:17:01.579Z,100179.00
2023-04-11T07:19:31.603Z,100187.00
2023-04-11T07:22:01.653Z,100181.00
2023-04-11T07:24:31.879Z,100190.00
2023-04-11T07:27:05.027Z,100184.00
2023-04-11T07:29:34.948Z,100179.00
2023-04-11T07:32:04.968Z,100189.00
2023-04-11T07:34:35.029Z,100184.00
2023-04-11T07:37:05.023Z,100190.00
2023-04-11T07:39:36.914Z,100187.00
2023-04-11T07:42:09.794Z,100191.00
2023-04-11T07:44:39.734Z,100189.00
2023-04-11T07:47:09.693Z,100188.00
2023-04-11T07:49:39.640Z,100183.00
2023-04-11T07:52:10.102Z,100183.00
2023-04-11T07:54:41.289Z,100181.00
2023-04-11T07:57:13.846Z,100188.00
2023-04-11T07:59:43.831Z,100181.00
2023-04-11T08:02:13.873Z,100193.00
2023-04-11T08:04:44.006Z,100197.00
2023-04-11T08:07:14.259Z,100198.00
2023-04-11T08:09:44.704Z,100205.00
2023-04-11T08:12:17.297Z,100193.00
2023-04-11T08:14:47.256Z,100191.00
2023-04-11T08:17:25.464Z,100197.00
2023-04-11T08:19:58.445Z,100200.00
2023-04-11T08:22:28.467Z,100202.00
2023-04-11T08:24:58.449Z,100195.00
2023-04-11T08:27:31.145Z,100189.00
2023-04-11T08:30:01.654Z,100193.00
2023-04-11T08:32:31.657Z,100192.00
2023-04-11T08:35:01.636Z,100202.00
2023-04-11T08:37:32.904Z,100193.00
2023-04-11T08:40:06.907Z,100195.00
2023-04-11T08:42:39.577Z,100192.00
2023-04-11T08:45:11.509Z,100190.00
2023-04-11T08:47:43.936Z,100196.00
2023-04-11T08:50:15.583Z,100195.00
2023-04-11T08:52:47.387Z,100195.00
2023-04-11T08:55:17.398Z,100203.00
2023-04-11T08:57:50.033Z,100216.00
2023-04-11T09:00:26.803Z,100225.00
2023-04-11T09:03:02.963Z,100214.00
2023-04-11T09:05:35.308Z,100220.00
2023-04-11T09:08:08.263Z,100216.00
2023-04-11T09:10:38.955Z,100217.00
2023-04-11T09:13:24.346Z,100216.00
2023-04-11T09:16:09.280Z,100220.00
2023-04-11T09:18:41.016Z,100225.00
2023-04-11T09:21:13.139Z,100230.00
2023-04-11T09:23:43.790Z,100232.00
2023-04-11T09:26:15.428Z,100223.00
2023-04-11T09:28:53.867Z,100218.00
2023-04-11T09:31:24.751Z,100221.00
2023-04-11T09:33:59.454Z,100211.00
2023-04-11T09:36:30.551Z,100205.00
2023-04-11T09:39:02.501Z,100211.00
2023-04-11T09:41:34.486Z,100213.00
2023-04-11T09:44:07.179Z,100202.00
2023-04-11T09:46:37.577Z,100206.00
2023-04-11T09:49:07.825Z,100205.00
2023-04-11T09:51:39.492Z,100206.00
2023-04-11T09:54:12.142Z,100207.00
2023-04-11T09:56:42.185Z,100206.00
2023-04-11T09:59:15.151Z,100212.00
2023-04-11T10:01:47.172Z,100211.00
2023-04-11T10:04:17.238Z,100206.00
2023-04-11T10:06:57.804Z,100198.00
2023-04-11T10:09:28.213Z,100193.00
2023-04-11T10:11:58.504Z,100195.00
2023-04-11T10:14:52.132Z,100205.00
2023-04-11T10:17:24.514Z,100198.00
2023-04-11T10:19:58.783Z,100198.00
2023-04-11T10:23:02.822Z,100201.00
2023-04-11T10:25:34.820Z,100211.00
2023-04-11T10:28:05.174Z,100203.00
2023-04-11T10:31:10.327Z,100200.00
2023-04-11T10:33:41.058Z,100205.00
2023-04-11T10:36:12.932Z,100199.00
2023-04-11T10:38:50.837Z,100197.00
2023-04-11T10:41:28.213Z,100200.00
2023-04-11T10:44:18.582Z,100201.00
2023-04-11T10:46:57.364Z,100199.00
2023-04-11T10:49:39.627Z,100186.00
2023-04-11T10:52:27.315Z,100187.00
2023-04-11T10:54:57.964Z,100197.00
2023-04-11T10:57:28.779Z,100188.00
2023-04-11T11:00:09.190Z,100186.00
2023-04-11T11:02:44.801Z,100182.00
2023-04-11T11:05:26.930Z,100181.00
2023-04-11T11:07:57.392Z,100187.00
2023-04-11T11:10:46.353Z,100171.00
2023-04-11T11:13:19.349Z,100177.00
2023-04-11T11:15:53.500Z,100167.00
2023-04-11T11:18:26.126Z,100177.00
2023-04-11T11:20:58.798Z,100176.00
2023-04-11T11:23:28.940Z,100173.00
2023-04-11T11:26:00.823Z,100179.00
2023-04-11T11:28:30.837Z,100184.00
2023-04-11T11:31:01.180Z,100181.00
2023-04-11T11:33:33.708Z,100191.00
2023-04-11T11:36:06.842Z,100181.00
2023-04-11T11:38:37.008Z,100174.00
2023-04-11T11:41:10.174Z,100189.00
2023-04-11T11:43:43.293Z,100199.00
2023-04-11T11:46:17.990Z,100205.00
2023-04-11T11:49:02.911Z,100203.00
2023-04-11T11:51:46.523Z,100203.00
2023-04-11T11:54:16.518Z,100207.00
2023-04-11T11:56:54.327Z,100210.00
2023-04-11T11:59:29.669Z,100206.00
2023-04-11T12:01:59.646Z,100206.00
2023-04-11T12:04:34.496Z,100201.00
2023-04-11T12:07:12.095Z,100205.00
2023-04-11T12:09:43.000Z,100206.00
2023-04-11T12:12:13.060Z,100206.00
2023-04-11T12:14:43.008Z,100215.00
2023-04-11T12:17:13.017Z,100210.00
2023-04-11T12:19:48.109Z,100222.00
2023-04-11T12:22:18.439Z,100230.00
2023-04-11T12:24:48.376Z,100225.00
2023-04-11T12:27:18.431Z,100223.00
2023-04-11T12:29:49.061Z,100226.00
2023-04-11T12:32:19.024Z,100237.00
2023-04-11T12:34:51.547Z,100258.00
2023-04-11T12:37:21.590Z,100259.00
2023-04-11T12:39:51.720Z,100265.00
2023-04-11T12:42:24.258Z,100263.00
2023-04-11T12:44:57.404Z,100267.00
2023-04-11T12:47:27.427Z,100289.00
2023-04-11T12:50:00.634Z,100292.00
2023-04-11T12:52:31.255Z,100289.00
2023-04-11T12:55:01.199Z,100283.00
2023-04-11T12:57:31.206Z,100288.00
2023-04-11T13:00:01.180Z,100291.00
2023-04-11T13:02:41.572Z,100286.00
2023-04-11T13:05:17.113Z,100281.00
2023-04-11T13:07:47.901Z,100283.00
2023-04-11T13:10:18.483Z,100284.00
2023-04-11T13:12:50.808Z,100285.00
2023-04-11T13:15:20.740Z,100288.00
2023-04-11T13:17:50.869Z,100300.00
2023-04-11T13:20:23.710Z,100293.00
2023-04-11T13:22:53.684Z,100290.00
2023-04-11T13:25:23.734Z,100299.00
2023-04-11T13:27:53.700Z,100288.00
2023-04-11T13:30:23.920Z,100288.00
2023-04-11T13:32:53.927Z,100283.00
2023-04-11T13:35:27.401Z,100289.00
2023-04-11T13:37:57.844Z,100292.00
2023-04-11T13:40:28.348Z,100311.00
2023-04-11T13:42:58.333Z,100321.00
2023-04-11T13:45:28.335Z,100336.00
2023-04-11T13:47:58.446Z,100364.00
2023-04-11T13:50:31.089Z,100367.00
2023-04-11T13:53:01.421Z,100365.00
2023-04-11T13:55:31.527Z,100374.00
2023-04-11T13:58:01.499Z,100377.00
2023-04-11T14:00:31.584Z,100382.00
2023-04-11T14:03:01.667Z,100379.00
2023-04-11T14:05:35.781Z,100399.00
2023-04-11T14:08:07.045Z,100400.00
2023-04-11T14:10:37.294Z,100408.00
2023-04-11T14:13:08.294Z,100421.00
2023-04-11T14:15:41.486Z,100425.00
2023-04-11T14:18:11.555Z,100426.00
2023-04-11T14:20:44.207Z,100429.00
2023-04-11T14:23:16.695Z,100435.00
2023-04-11T14:25:46.818Z,100438.00
2023-04-11T14:28:16.823Z,100440.00
2023-04-11T14:30:46.888Z,100441.00
2023-04-11T14:33:16.919Z,100432.00
2023-04-11T14:35:50.499Z,100440.00
2023-04-11T14:38:20.669Z,100438.00
2023-04-11T14:40:50.680Z,100434.00
2023-04-11T14:43:20.656Z,100452.00
2023-04-11T14:45:50.734Z,100443.00
2023-04-11T14:48:20.689Z,100443.00
2023-04-11T14:50:54.904Z,100449.00
2023-04-11T14:53:24.921Z,100438.00
2023-04-11T14:55:54.898Z,100432.00
2023-04-11T14:58:24.890Z,100432.00
2023-04-11T15:00:55.996Z,100417.00
2023-04-11T15:03:26.185Z,100426.00
2023-04-11T15:05:58.854Z,100406.00
2023-04-11T15:08:28.816Z,100400.00
2023-04-11T15:10:58.788Z,100401.00
2023-04-11T15:13:28.847Z,100385.00
2023-04-11T15:16:02.322Z,100403.00
2023-04-11T15:18:33.950Z,100394.00
2023-04-11T15:21:07.075Z,100397.00
2023-04-11T15:23:37.019Z,100395.00
2023-04-11T15:26:08.843Z,100395.00
2023-04-11T15:28:42.127Z,100389.00
2023-04-11T15:31:13.207Z,100402.00
2023-04-11T15:33:43.340Z,100396.00
2023-04-11T15:36:16.140Z,100394.00
2023-04-11T15:38:47.576Z,100391.00
2023-04-11T15:41:17.567Z,100397.00
2023-04-11T15:43:47.548Z,100399.00
2023-04-11T15:46:17.522Z,100408.00
2023-04-11T15:48:47.628Z,100405.00
2023-04-11T15:51:20.188Z,100412.00
2023-04-11T15:53:50.594Z,100400.00
2023-04-11T15:56:20.604Z,100411.00
2023-04-11T15:58:51.701Z,100410.00
2023-04-11T16:01:25.405Z,100414.00
2023-04-11T16:03:56.887Z,100413.00
2023-04-11T16:06:29.913Z,100418.00
2023-04-11T16:08:59.883Z,100412.00
2023-04-11T16:11:29.904Z,100416.00
2023-04-11T16:13:59.837Z,100431.00
2023-04-11T16:16:29.893Z,100426.00
2023-04-11T16:18:59.868Z,100433.00
2023-04-11T16:21:32.643Z,100430.00
2023-04-11T16:24:02.602Z,100430.00
2023-04-11T16:26:32.536Z,100433.00
2023-04-11T16:29:02.537Z,100445.00
2023-04-11T16:31:32.716Z,100464.00
2023-04-11T16:34:02.726Z,100458.00
2023-04-11T16:36:35.566Z,100445.00
2023-04-11T16:39:06.638Z,100457.00
2023-04-11T16:41:38.048Z,100453.00
2023-04-11T16:44:11.625Z,100443.00
2023-04-11T16:46:41.872Z,100441.00
2023-04-11T16:49:12.678Z,100430.00
2023-04-11T16:51:45.212Z,100426.00
2023-04-11T16:54:16.178Z,100421.00
2023-04-11T16:56:47.436Z,100423.00
2023-04-11T16:59:18.939Z,100414.00
2023-04-11T17:01:49.145Z,100413.00
2023-04-11T17:04:19.354Z,100409.00
2023-04-11T17:06:52.125Z,100408.00
2023-04-11T17:09:22.466Z,100413.00
2023-04-11T17:11:52.445Z,100429.00
2023-04-11T17:14:22.442Z,100440.00
2023-04-11T17:16:52.487Z,100440.00
2023-04-11T17:19:23.759Z,100455.00
2023-04-11T17:21:57.647Z,100459.00
2023-04-11T17:24:28.160Z,100465.00
2023-04-11T17:26:58.303Z,100457.00
2023-04-11T17:29:28.578Z,100466.00
2023-04-11T17:31:58.549Z,100473.00
2023-04-11T17:34:28.521Z,100467.00
2023-04-11T17:37:01.285Z,100470.00
2023-04-11T17:39:31.252Z,100468.00
2023-04-11T17:42:01.534Z,100475.00
2023-04-11T17:44:31.530Z,100488.00
2023-04-11T17:47:01.490Z,100476.00
2023-04-11T17:49:31.477Z,100473.00
2023-04-11T17:52:04.030Z,100486.00
2023-04-11T17:54:34.192Z,100480.00
2023-04-11T17:57:04.220Z,100483.00
2023-04-11T17:59:34.481Z,100491.00
2023-04-11T18:02:04.710Z,100502.00
2023-04-11T18:04:34.838Z,100507.00
2023-04-11T18:07:07.756Z,100505.00
2023-04-11T18:09:38.083Z,100516.00
2023-04-11T18:12:08.150Z,100512.00
2023-04-11T18:14:38.121Z,100518.00
2023-04-11T18:17:08.066Z,100534.00
2023-04-11T18:19:38.070Z,100532.00
2023-04-11T18:22:10.828Z,100528.00
2023-04-11T18:24:40.776Z,100525.00
2023-04-11T18:27:11.385Z,100533.00
2023-04-11T18:29:42.240Z,100534.00
2023-04-11T18:32:12.235Z,100533.00
2023-04-11T18:34:42.203Z,100535.00
2023-04-11T18:37:15.228Z,100543.00
2023-04-11T18:39:45.990Z,100548.00
2023-04-11T18:42:16.135Z,100550.00
2023-04-11T18:44:46.507Z,100552.00
2023-04-11T18:47:17.504Z,100550.00
2023-04-11T18:49:48.014Z,100559.00
2023-04-11T18:52:20.704Z,100563.00
2023-04-11T18:54:50.672Z,100560.00
2023-04-11T18:57:20.853Z,100563.00
2023-04-11T18:59:52.358Z,100572.00
2023-04-11T19:02:24.551Z,100567.00
2023-04-11T19:04:55.537Z,100568.00
2023-04-11T19:07:28.337Z,100559.00
2023-04-11T19:10:00.593Z,100558.00
2023-04-11T19:12:30.792Z,100566.00
2023-04-11T19:15:00.750Z,100564.00
2023-04-11T19:17:31.312Z,100567.00
2023-04-11T19:20:02.545Z,100572.00
2023-04-11T19:22:36.051Z,100577.00
2023-04-11T19:25:06.187Z,100575.00
2023-04-11T19:27:39.201Z,100568.00
2023-04-11T19:30:11.694Z,100570.00
2023-04-11T19:32:43.795Z,100566.00
2023-04-11T19:35:14.702Z,100582.00
2023-04-11T19:37:47.256Z,100578.00
2023-04-11T19:40:18.469Z,100574.00
2023-04-11T19:42:48.981Z,100575.00
2023-04-11T19:45:18.941Z,100579.00
2023-04-11T19:47:48.973Z,100586.00
2023-04-11T19:50:18.936Z,100571.00
2023-04-11T19:52:51.692Z,100579.00
2023-04-11T19:55:21.720Z,100583.00
2023-04-11T19:57:51.714Z,100578.00
2023-04-11T20:00:22.005Z,100578.00
2023-04-11T20:02:52.118Z,100582.00
2023-04-11T20:05:23.943Z,100582.00
2023-04-11T20:07:56.649Z,100582.00
2023-04-11T20:10:28.493Z,100589.00
2023-04-11T20:12:58.483Z,100594.00
2023-04-11T20:15:28.798Z,100588.00
2023-04-11T20:17:58.996Z,100587.00
2023-04-11T20:20:29.892Z,100598.00
2023-04-11T20:23:04.876Z,100595.00
2023-04-11T20:25:35.124Z,100586.00
2023-04-11T20:28:05.322Z,100595.00
2023-04-11T20:30:35.916Z,100578.00
2023-04-11T20:33:06.220Z,100589.00
2023-04-11T20:35:36.328Z,100593.00
2023-04-11T20:38:09.077Z,100593.00
2023-04-11T20:40:39.811Z,100592.00
2023-04-11T20:43:09.932Z,100590.00
2023-04-11T20:45:39.944Z,100600.00
2023-04-11T20:48:13.062Z,100595.00
2023-04-11T20:50:47.321Z,100595.00
2023-04-11T20:53:19.879Z,100600.00
2023-04-11T20:55:49.888Z,100601.00
2023-04-11T20:58:21.256Z,100595.00
2023-04-11T21:00:51.218Z,100598.00
2023-04-11T21:03:21.344Z,100580.00
2023-04-11T21:05:51.785Z,100590.00
2023-04-11T21:08:24.445Z,100593.00
2023-04-11T21:10:54.425Z,100583.00
2023-04-11T21:13:24.440Z,100593.00
2023-04-11T21:15:54.462Z,100589.00
2023-04-11T21:18:26.909Z,100588.00
2023-04-11T21:20:57.255Z,100592.00
2023-04-11T21:23:29.874Z,100591.00
2023-04-11T21:25:59.828Z,100586.00
2023-04-11T21:28:29.815Z,100583.00
2023-04-11T21:30:59.847Z,100598.00
2023-04-11T21:33:29.909Z,100591.00
2023-04-11T21:35:59.930Z,100586.00
2023-04-11T21:38:32.569Z,100589.00
2023-04-11T21:41:02.513Z,100589.00
2023-04-11T21:43:32.535Z,100593.00
2023-04-11T21:46:02.473Z,100590.00
2023-04-11T21:48:32.462Z,100591.00
2023-04-11T21:51:02.438Z,100599.00
2023-04-11T21:53:34.961Z,100600.00
2023-04-11T21:56:04.912Z,100606.00
2023-04-11T21:58:34.902Z,100607.00
2023-04-11T22:01:05.618Z,100607.00
2023-04-11T22:03:35.804Z,100611.00
2023-04-11T22:06:05.818Z,100608.00
2023-04-11T22:08:39.283Z,100605.00
2023-04-11T22:11:10.600Z,100612.00
2023-04-11T22:13:41.064Z,100606.00
2023-04-11T22:16:11.943Z,100602.00
2023-04-11T22:18:49.268Z,100617.00
2023-04-11T22:21:21.335Z,100610.00
2023-04-11T22:23:56.871Z,100611.00
2023-04-11T22:26:29.763Z,100616.00
2023-04-11T22:29:02.731Z,100610.00
2023-04-11T22:31:34.566Z,100620.00
2023-04-11T22:34:04.809Z,100616.00
2023-04-11T22:36:38.035Z,100615.00
2023-04-11T22:39:11.378Z,100600.00
2023-04-11T22:41:41.329Z,100610.00
2023-04-11T22:44:11.428Z,100603.00
2023-04-11T22:46:42.704Z,100611.00
2023-04-11T22:49:13.001Z,100610.00
2023-04-11T22:51:42.953Z,100605.00
2023-04-11T22:54:15.825Z,100613.00
2023-04-11T22:56:46.055Z,100607.00
2023-04-11T22:59:16.247Z,100616.00
2023-04-11T23:01:47.264Z,100617.00
2023-04-11T23:04:17.260Z,100612.00
2023-04-11T23:06:47.296Z,100620.00
2023-04-11T23:09:20.588Z,100619.00
2023-04-11T23:11:51.357Z,100618.00
2023-04-11T23:14:22.535Z,100607.00
2023-04-11T23:16:52.653Z,100613.00
2023-04-11T23:19:22.618Z,100592.00
2023-04-11T23:21:52.555Z,100605.00
2023-04-11T23:24:25.126Z,100594.00
2023-04-11T23:26:55.348Z,100600.00
2023-04-11T23:29:25.277Z,100597.00
2023-04-11T23:31:55.235Z,100595.00
2023-04-11T23:34:25.320Z,100590.00
2023-04-11T23:36:55.634Z,100597.00
2023-04-11T23:39:28.226Z,100595.00
2023-04-11T23:41:58.194Z,100593.00
2023-04-11T23:44:28.201Z,100593.00
2023-04-11T23:46:58.150Z,100594.00
2023-04-11T23:49:28.140Z,100593.00
2023-04-11T23:51:58.080Z,100583.00
2023-04-11T23:54:31.397Z,100582.00
2023-04-11T23:57:01.810Z,100579.00
2023-04-11T23:59:33.510Z,100589.00
